O05 weather

Rogers Field
Chester, California, United States

Public forecast

Using degrees Fahrenheit for public forecast. Weather courtesy of forecast.io.

Closest aviation weather report (METAR) to Rogers Field

Closest report is Chico Municipal Airport, 40.7 nm (75.4 km) SW. Retrieved 2019/10/15 03:35 UTC (7 minutes ago):

KCIC 150335Z AUTO 06006KT 10SM FEW021 19/M02 A2996 RMK AO1

Closest aviation forecast (TAF) to Rogers Field

Closest forecast is Red Bluff Municipal Airport, 47.0 nm (87.1 km) W. Retrieved 2019-10-15 00:22 UTC (3 hours ago):

TAF KRBL 142320Z 1500/1524 VRB05KT P6SM SKC